Aérodrome :
LOGIN :

S'inscrire | Disclaimer

   EN    FR    IT 

 










Légende :    VFR   VFR Marginal   IFR   IFR Intensif   IFR Très Intensif
Visi : 
Plafond : 
>= 8 km
>= 3000ft
5 à 8 km
1000 à 3000 ft
1500m à 5 km
500 à 1000 ft
800 à 1500m
200 à 500 ft
< 800m
< 200 ft
Symboles :   Orages  Brouillard  Fortes neiges  Fortes précipitations  Vent > 20 kt
SIGMETs :   Divers  Orages  Givrage  Turbulence  Onde Orograph.  Cendres Volcan.







- Altitude de l'aérodrome : 128 ft


ETND - Diepholz

DERNIER METAR :
  • 261142Z 30011KT 9999 BKN017 BKN060 07/04 Q1028 WHT BLU TEMPO WHT

METARs EXPIRÉS :
  • 261120Z 30011KT 9999 SCT015 BKN060 07/04 Q1028 BLU BLU TEMPO WHT
  • 261020Z 29012KT 9999 FEW016 BKN020 07/04 Q1028 WHT BLU TEMPO WHT
  • 260947Z 28011KT 9999 FEW015 BKN020 07/04 Q1028 WHT BLU TEMPO WHT
  • 260920Z 28010KT 9999 SCT015 BKN032 07/03 Q1028 BLU BLU

TAF TAF ETND
Valide du 26 à 12h jusqu'au 26 à 21h UTC


261100Z 2612/2621 29010KT 9999 NSW BKN035
TEMPO 2612/2617 31015G25KT 8000 NSW BKN020 BY ETGL
Pas de NOTAMs connus pour ce terrain.



MET'MAP, la Météo Aéronautique d'un coup d'oeil ! - Copyright ORBIFLY Décembre 2007 - Disclaimer

ORBIFLY MET'MAP TEAM :

Programmation & Développement : Alexandra Zaïnal
Conception & Développement : Baudouin d'Aumeries
Co-Programmation & Développement : Marc-Olivier Méhu
Soutien technique & logistique : Manuel Goepfert

Contact : metmap@orbifly.com




SOURCES & CREDITS :

   NOAA